createdAt,value
2024-01-25T00:02:04.546Z,12.82
2024-01-25T00:04:31.987Z,16.67
2024-01-25T00:06:59.562Z,18.60
2024-01-25T00:09:27.138Z,21.13
2024-01-25T00:11:54.330Z,14.13
2024-01-25T00:14:21.459Z,14.05
2024-01-25T00:16:48.667Z,12.45
2024-01-25T00:19:15.890Z,12.98
2024-01-25T00:21:45.051Z,15.07
2024-01-25T00:24:15.507Z,15.45
2024-01-25T00:26:42.758Z,11.68
2024-01-25T00:29:10.193Z,20.10
2024-01-25T00:31:37.333Z,15.95
2024-01-25T00:34:04.956Z,14.35
2024-01-25T00:36:32.952Z,14.80
2024-01-25T00:39:00.611Z,15.82
2024-01-25T00:41:30.300Z,12.32
2024-01-25T00:43:57.607Z,14.02
2024-01-25T00:46:25.192Z,16.50
2024-01-25T00:48:52.775Z,14.23
2024-01-25T00:51:24.092Z,14.60
2024-01-25T00:53:51.621Z,16.90
2024-01-25T00:56:19.129Z,17.17
2024-01-25T00:58:46.589Z,18.83
2024-01-25T01:01:14.332Z,14.70
2024-01-25T01:03:42.054Z,9.15
2024-01-25T01:06:11.137Z,11.60
2024-01-25T01:08:38.937Z,18.25
2024-01-25T01:11:06.398Z,13.32
2024-01-25T01:13:33.588Z,14.23
2024-01-25T01:16:01.109Z,17.45
2024-01-25T01:18:29.688Z,20.90
2024-01-25T01:20:57.177Z,14.55
2024-01-25T01:23:24.297Z,15.20
2024-01-25T01:25:51.462Z,13.93
2024-01-25T01:28:19.010Z,13.88
2024-01-25T01:30:46.959Z,13.13
2024-01-25T01:33:14.770Z,12.45
2024-01-25T01:35:42.205Z,16.98
2024-01-25T01:38:09.440Z,16.27
2024-01-25T01:40:36.669Z,12.93
2024-01-25T01:43:04.674Z,16.98
2024-01-25T01:45:31.748Z,11.80
2024-01-25T01:48:00.539Z,11.75
2024-01-25T01:50:28.842Z,12.48
2024-01-25T01:52:56.496Z,16.20
2024-01-25T01:55:24.804Z,13.88
2024-01-25T01:57:52.746Z,11.90
2024-01-25T02:00:22.124Z,13.93
2024-01-25T02:02:49.392Z,14.07
2024-01-25T02:05:16.750Z,14.82
2024-01-25T02:07:44.455Z,12.13
2024-01-25T02:10:13.265Z,10.43
2024-01-25T02:12:40.517Z,11.18
2024-01-25T02:15:08.709Z,10.98
2024-01-25T02:17:35.998Z,14.43
2024-01-25T02:20:04.607Z,16.83
2024-01-25T02:22:31.881Z,14.25
2024-01-25T02:24:59.086Z,14.65
2024-01-25T02:27:26.213Z,9.57
2024-01-25T02:29:53.641Z,9.02
2024-01-25T02:32:20.843Z,9.60
2024-01-25T02:34:48.162Z,16.70
2024-01-25T02:37:15.875Z,11.05
2024-01-25T02:39:43.247Z,10.15
2024-01-25T02:42:10.504Z,16.05
2024-01-25T02:44:37.700Z,12.18
2024-01-25T02:47:04.888Z,9.68
2024-01-25T02:49:32.291Z,10.73
2024-01-25T02:51:59.697Z,13.43
2024-01-25T02:54:26.910Z,12.40
2024-01-25T02:56:54.150Z,11.70
2024-01-25T02:59:21.397Z,10.30
2024-01-25T03:01:48.837Z,13.85
2024-01-25T03:04:16.147Z,9.98
2024-01-25T03:06:43.652Z,14.38
2024-01-25T03:09:11.038Z,11.13
2024-01-25T03:11:38.209Z,14.38
2024-01-25T03:14:05.410Z,11.25
2024-01-25T03:16:32.603Z,12.13
2024-01-25T03:19:00.376Z,13.55
2024-01-25T03:21:27.613Z,15.60
2024-01-25T03:23:54.806Z,14.77
2024-01-25T03:26:21.979Z,13.63
2024-01-25T03:28:50.047Z,16.73
2024-01-25T03:31:17.915Z,20.25
2024-01-25T03:33:45.376Z,11.55
2024-01-25T03:36:16.797Z,12.10
2024-01-25T03:38:44.636Z,11.93
2024-01-25T03:41:12.226Z,15.63
2024-01-25T03:43:43.974Z,14.77
2024-01-25T03:46:15.391Z,9.35
2024-01-25T03:48:42.972Z,11.00
2024-01-25T03:51:10.659Z,13.05
2024-01-25T03:53:37.933Z,13.82
2024-01-25T03:56:05.426Z,14.25
2024-01-25T03:58:33.180Z,11.20
2024-01-25T04:01:00.468Z,11.82
2024-01-25T04:03:27.822Z,8.20
2024-01-25T04:05:55.158Z,9.90
2024-01-25T04:08:22.390Z,12.13
2024-01-25T04:10:49.720Z,12.50
2024-01-25T04:13:16.857Z,14.70
2024-01-25T04:15:44.136Z,11.77
2024-01-25T04:18:11.473Z,10.65
2024-01-25T04:20:38.928Z,9.00
2024-01-25T04:23:06.361Z,6.25
2024-01-25T04:25:34.753Z,8.30
2024-01-25T04:28:03.223Z,13.70
2024-01-25T04:30:32.292Z,11.30
2024-01-25T04:33:00.732Z,8.68
2024-01-25T04:35:28.259Z,13.15
2024-01-25T04:37:55.609Z,12.32
2024-01-25T04:40:22.937Z,10.55
2024-01-25T04:42:50.418Z,8.57
2024-01-25T04:45:17.763Z,12.98
2024-01-25T04:47:44.969Z,11.07
2024-01-25T04:50:12.348Z,6.55
2024-01-25T04:52:39.656Z,10.38
2024-01-25T04:55:07.375Z,8.55
2024-01-25T04:57:34.771Z,6.85
2024-01-25T05:00:02.152Z,8.13
2024-01-25T05:02:29.555Z,8.15
2024-01-25T05:04:56.739Z,8.63
2024-01-25T05:07:29.794Z,8.23
2024-01-25T05:09:58.583Z,8.95
2024-01-25T05:12:25.822Z,7.22
2024-01-25T05:14:53.365Z,7.15
2024-01-25T05:17:20.656Z,8.52
2024-01-25T05:19:48.067Z,11.15
2024-01-25T05:22:15.623Z,7.57
2024-01-25T05:24:42.799Z,7.30
2024-01-25T05:27:10.112Z,6.53
2024-01-25T05:29:37.349Z,8.73
2024-01-25T05:32:04.905Z,6.63
2024-01-25T05:34:32.219Z,7.50
2024-01-25T05:36:59.813Z,10.75
2024-01-25T05:39:27.358Z,8.23
2024-01-25T05:41:54.839Z,7.90
2024-01-25T05:44:22.492Z,10.43
2024-01-25T05:46:49.962Z,11.48
2024-01-25T05:49:17.852Z,8.38
2024-01-25T05:51:45.366Z,8.13
2024-01-25T05:54:12.611Z,11.35
2024-01-25T05:56:39.887Z,12.70
2024-01-25T05:59:07.313Z,12.98
2024-01-25T06:01:34.648Z,9.93
2024-01-25T06:04:01.875Z,12.48
2024-01-25T06:06:29.216Z,13.57
2024-01-25T06:09:02.605Z,12.65
2024-01-25T06:11:38.935Z,9.73
2024-01-25T06:14:09.739Z,10.18
2024-01-25T06:16:37.016Z,8.68
2024-01-25T06:19:05.464Z,11.05
2024-01-25T06:21:35.252Z,6.93
2024-01-25T06:24:03.706Z,7.53
2024-01-25T06:26:31.193Z,8.88
2024-01-25T06:28:58.740Z,9.15
2024-01-25T06:31:26.485Z,6.75
2024-01-25T06:33:54.764Z,11.48
2024-01-25T06:36:22.208Z,9.32
2024-01-25T06:38:49.540Z,9.45
2024-01-25T06:41:17.742Z,9.68
2024-01-25T06:43:45.270Z,10.23
2024-01-25T06:46:13.043Z,6.93
2024-01-25T06:48:40.509Z,7.00
2024-01-25T06:51:07.909Z,10.55
2024-01-25T06:53:35.234Z,8.52
2024-01-25T06:56:02.687Z,6.78
2024-01-25T06:58:31.207Z,7.63
2024-01-25T07:00:59.061Z,5.90
2024-01-25T07:03:26.839Z,8.15
2024-01-25T07:05:54.290Z,7.15
2024-01-25T07:08:21.618Z,7.90
2024-01-25T07:10:48.830Z,8.25
2024-01-25T07:13:16.015Z,9.45
2024-01-25T07:15:43.714Z,7.97
2024-01-25T07:18:12.128Z,11.50
2024-01-25T07:20:39.531Z,9.25
2024-01-25T07:23:06.928Z,10.70
2024-01-25T07:25:34.252Z,8.70
2024-01-25T07:28:01.740Z,7.50
2024-01-25T07:30:29.153Z,5.32
2024-01-25T07:32:56.507Z,10.18
2024-01-25T07:35:25.141Z,8.90
2024-01-25T07:37:52.733Z,7.38
2024-01-25T07:40:19.970Z,7.85
2024-01-25T07:42:48.564Z,8.10
2024-01-25T07:45:16.159Z,8.35
2024-01-25T07:47:45.416Z,6.97
2024-01-25T07:50:13.253Z,9.25
2024-01-25T07:52:40.657Z,6.57
2024-01-25T07:55:08.306Z,10.75
2024-01-25T07:57:35.714Z,8.68
2024-01-25T08:00:03.390Z,6.97
2024-01-25T08:02:30.776Z,11.18
2024-01-25T08:04:59.196Z,9.27
2024-01-25T08:07:26.705Z,8.23
2024-01-25T08:09:54.407Z,9.18
2024-01-25T08:12:21.685Z,13.48
2024-01-25T08:14:48.945Z,9.05
2024-01-25T08:17:16.240Z,11.75
2024-01-25T08:19:43.878Z,8.52
2024-01-25T08:22:11.347Z,7.57
2024-01-25T08:24:40.292Z,8.45
2024-01-25T08:27:08.728Z,9.07
2024-01-25T08:29:36.867Z,10.80
2024-01-25T08:32:04.470Z,9.70
2024-01-25T08:34:31.928Z,6.90
2024-01-25T08:36:59.385Z,19.00
2024-01-25T08:39:26.648Z,9.63
2024-01-25T08:41:54.766Z,10.15
2024-01-25T08:44:22.034Z,8.23
2024-01-25T08:46:49.240Z,8.65
2024-01-25T08:49:16.776Z,10.35
2024-01-25T08:51:44.128Z,7.45
2024-01-25T08:54:11.651Z,11.98
2024-01-25T08:56:39.118Z,9.13
2024-01-25T08:59:06.450Z,12.50
2024-01-25T09:01:34.292Z,9.93
2024-01-25T09:04:05.416Z,13.60
2024-01-25T09:06:32.878Z,10.70
2024-01-25T09:09:00.408Z,15.93
2024-01-25T09:11:27.772Z,12.57
2024-01-25T09:13:54.978Z,12.25
2024-01-25T09:16:23.562Z,11.60
2024-01-25T09:18:51.265Z,15.80
2024-01-25T09:21:18.929Z,12.32
2024-01-25T09:23:46.156Z,9.43
2024-01-25T09:26:13.578Z,12.13
2024-01-25T09:28:40.742Z,12.48
2024-01-25T09:31:08.578Z,13.88
2024-01-25T09:33:36.563Z,8.43
2024-01-25T09:36:04.359Z,9.95
2024-01-25T09:38:31.763Z,9.65
2024-01-25T09:40:59.157Z,8.27
2024-01-25T09:43:26.630Z,7.28
2024-01-25T09:45:57.492Z,7.70
2024-01-25T09:48:25.065Z,12.38
2024-01-25T09:50:56.119Z,12.98
2024-01-25T09:53:24.525Z,7.00
2024-01-25T09:56:09.871Z,9.57
2024-01-25T09:58:43.155Z,10.10
2024-01-25T10:01:12.201Z,8.82
2024-01-25T10:03:43.894Z,12.43
2024-01-25T10:06:13.860Z,10.55
2024-01-25T10:08:41.223Z,10.93
2024-01-25T10:11:13.083Z,10.82
2024-01-25T10:13:44.093Z,13.35
2024-01-25T10:16:16.219Z,13.82
2024-01-25T10:18:44.670Z,8.98
2024-01-25T10:21:12.736Z,11.93
2024-01-25T10:23:41.105Z,12.95
2024-01-25T10:26:12.216Z,12.20
2024-01-25T10:28:39.764Z,9.25
2024-01-25T10:31:08.310Z,8.50
2024-01-25T10:33:36.276Z,13.07
2024-01-25T10:36:06.020Z,11.00
2024-01-25T10:38:37.029Z,8.65
2024-01-25T10:41:06.853Z,13.60
2024-01-25T10:43:34.863Z,12.38
2024-01-25T10:46:04.860Z,14.18
2024-01-25T10:48:32.979Z,8.52
2024-01-25T10:51:04.487Z,12.07
2024-01-25T10:53:34.390Z,13.40
2024-01-25T10:56:02.645Z,10.32
2024-01-25T10:58:39.549Z,12.70
2024-01-25T11:01:15.955Z,13.82
2024-01-25T11:03:46.735Z,8.75
2024-01-25T11:06:15.320Z,14.32
2024-01-25T11:08:43.342Z,13.88
2024-01-25T11:11:15.730Z,17.05
2024-01-25T11:13:44.144Z,10.98
2024-01-25T11:16:19.928Z,12.32
2024-01-25T11:18:52.105Z,10.82
2024-01-25T11:21:47.663Z,13.30
2024-01-25T11:24:26.765Z,15.55
2024-01-25T11:26:55.863Z,13.25
2024-01-25T11:29:25.513Z,11.60
2024-01-25T11:31:53.601Z,13.60
2024-01-25T11:34:22.087Z,13.07
2024-01-25T11:36:49.726Z,10.68
2024-01-25T11:39:17.947Z,13.63
2024-01-25T11:41:46.059Z,17.33
2024-01-25T11:44:14.644Z,10.25
2024-01-25T11:46:42.284Z,13.98
2024-01-25T11:49:10.009Z,12.93
2024-01-25T11:51:37.587Z,13.30
2024-01-25T11:54:09.181Z,12.73
2024-01-25T11:56:42.667Z,14.15
2024-01-25T11:59:11.748Z,11.20
2024-01-25T12:01:40.108Z,10.98
2024-01-25T12:04:09.101Z,13.48
2024-01-25T12:06:36.977Z,12.18
2024-01-25T12:09:09.709Z,15.13
2024-01-25T12:11:36.948Z,10.70
2024-01-25T12:14:04.123Z,9.90
2024-01-25T12:16:32.405Z,9.77
2024-01-25T12:19:01.657Z,12.68
2024-01-25T12:21:28.974Z,13.38
2024-01-25T12:23:56.111Z,11.45
2024-01-25T12:26:23.357Z,11.10
2024-01-25T12:28:51.040Z,12.27
2024-01-25T12:31:19.157Z,10.70
2024-01-25T12:33:46.711Z,11.73
2024-01-25T12:36:14.322Z,12.65
2024-01-25T12:38:41.548Z,10.50
2024-01-25T12:41:08.695Z,10.50
2024-01-25T12:43:36.435Z,9.18
2024-01-25T12:46:13.144Z,9.82
2024-01-25T12:48:49.649Z,14.35
2024-01-25T12:51:17.346Z,9.85
2024-01-25T12:53:44.940Z,9.88
2024-01-25T12:56:13.108Z,11.40
2024-01-25T12:58:40.851Z,9.65
2024-01-25T13:01:08.332Z,9.63
2024-01-25T13:03:36.625Z,10.10
2024-01-25T13:06:06.246Z,10.15
2024-01-25T13:08:33.502Z,11.57
2024-01-25T13:11:02.448Z,10.35
2024-01-25T13:13:29.747Z,14.20
2024-01-25T13:15:58.153Z,12.18
2024-01-25T13:18:26.242Z,9.15
2024-01-25T13:20:53.553Z,12.68
2024-01-25T13:23:20.974Z,11.40
2024-01-25T13:25:48.410Z,11.15
2024-01-25T13:28:15.679Z,14.55
2024-01-25T13:30:42.959Z,10.93
2024-01-25T13:33:10.390Z,11.73
2024-01-25T13:35:37.764Z,13.63
2024-01-25T13:38:04.900Z,11.52
2024-01-25T13:40:32.137Z,10.15
2024-01-25T13:42:59.642Z,10.40
2024-01-25T13:45:28.434Z,14.45
2024-01-25T13:47:55.697Z,13.10
2024-01-25T13:50:23.013Z,10.95
2024-01-25T13:52:50.354Z,10.13
2024-01-25T13:55:18.742Z,10.30
2024-01-25T13:57:46.219Z,12.50
2024-01-25T14:00:14.441Z,9.98
2024-01-25T14:02:46.375Z,10.05
2024-01-25T14:05:14.004Z,9.70
2024-01-25T14:07:41.074Z,10.30
2024-01-25T14:10:09.285Z,9.60
2024-01-25T14:12:36.660Z,12.55
2024-01-25T14:15:03.884Z,8.75
2024-01-25T14:17:31.208Z,9.93
2024-01-25T14:19:58.765Z,10.88
2024-01-25T14:22:30.390Z,11.05
2024-01-25T14:25:00.513Z,9.60
2024-01-25T14:27:28.348Z,7.05
2024-01-25T14:29:56.326Z,8.65
2024-01-25T14:32:24.388Z,7.95
2024-01-25T14:34:53.132Z,7.95
2024-01-25T14:37:20.813Z,9.52
2024-01-25T14:39:56.850Z,7.75
2024-01-25T14:42:35.679Z,7.82
2024-01-25T14:45:03.688Z,8.77
2024-01-25T14:47:32.517Z,10.63
2024-01-25T14:49:59.637Z,8.75
2024-01-25T14:52:28.252Z,11.63
2024-01-25T14:54:55.786Z,11.75
2024-01-25T14:57:23.239Z,9.52
2024-01-25T14:59:50.592Z,9.43
2024-01-25T15:02:17.855Z,11.45
2024-01-25T15:04:45.308Z,8.38
2024-01-25T15:07:13.106Z,6.78
2024-01-25T15:09:41.660Z,7.13
2024-01-25T15:12:10.247Z,8.40
2024-01-25T15:14:37.783Z,8.65
2024-01-25T15:17:06.386Z,5.28
2024-01-25T15:19:33.801Z,12.93
2024-01-25T15:22:01.580Z,6.88
2024-01-25T15:24:32.628Z,9.05
2024-01-25T15:27:00.152Z,7.47
2024-01-25T15:29:28.610Z,9.82
2024-01-25T15:31:56.273Z,9.38
2024-01-25T15:34:23.798Z,7.63
2024-01-25T15:36:51.821Z,10.15
2024-01-25T15:39:20.157Z,8.40
2024-01-25T15:41:50.596Z,3.92
2024-01-25T15:44:18.343Z,5.00
2024-01-25T15:46:45.667Z,5.70
2024-01-25T15:49:13.008Z,7.18
2024-01-25T15:51:40.610Z,9.02
2024-01-25T15:54:11.844Z,7.95
2024-01-25T15:56:39.816Z,4.53
2024-01-25T15:59:07.457Z,3.40
2024-01-25T16:01:35.235Z,5.80
2024-01-25T16:04:03.538Z,3.35
2024-01-25T16:06:31.179Z,2.65
2024-01-25T16:09:06.588Z,5.68
2024-01-25T16:11:34.597Z,6.22
2024-01-25T16:14:02.311Z,6.07
2024-01-25T16:16:29.866Z,8.57
2024-01-25T16:18:58.257Z,4.43
2024-01-25T16:21:25.903Z,5.47
2024-01-25T16:23:53.056Z,3.42
2024-01-25T16:26:22.269Z,9.20
2024-01-25T16:28:49.445Z,4.88
2024-01-25T16:31:16.625Z,3.72
2024-01-25T16:33:44.277Z,3.47
2024-01-25T16:36:11.559Z,7.00
2024-01-25T16:38:39.030Z,7.45
2024-01-25T16:41:06.612Z,4.95
2024-01-25T16:43:34.354Z,5.60
2024-01-25T16:46:01.596Z,5.20
2024-01-25T16:48:28.985Z,3.22
2024-01-25T16:50:56.816Z,5.68
2024-01-25T16:53:24.276Z,5.57
2024-01-25T16:55:52.428Z,3.88
2024-01-25T16:58:21.238Z,6.28
2024-01-25T17:00:51.287Z,4.97
2024-01-25T17:03:19.445Z,3.03
2024-01-25T17:05:47.361Z,4.47
2024-01-25T17:08:15.393Z,2.88
2024-01-25T17:10:42.727Z,4.97
2024-01-25T17:13:13.089Z,6.20
2024-01-25T17:15:40.611Z,7.18
2024-01-25T17:18:08.110Z,5.80
2024-01-25T17:20:35.749Z,5.65
2024-01-25T17:23:04.953Z,4.97
2024-01-25T17:25:35.461Z,3.20
2024-01-25T17:28:03.197Z,7.28
2024-01-25T17:30:32.562Z,5.40
2024-01-25T17:33:00.464Z,4.85
2024-01-25T17:35:28.032Z,4.30
2024-01-25T17:37:55.290Z,5.20
2024-01-25T17:40:25.075Z,5.38
2024-01-25T17:42:52.698Z,5.30
2024-01-25T17:45:20.007Z,4.40
2024-01-25T17:47:47.388Z,6.05
2024-01-25T17:50:15.284Z,5.07
2024-01-25T17:52:42.771Z,7.18
2024-01-25T17:55:10.067Z,5.57
2024-01-25T17:57:37.582Z,7.10
2024-01-25T18:00:05.395Z,5.03
2024-01-25T18:02:32.711Z,7.85
2024-01-25T18:05:00.184Z,7.25
2024-01-25T18:07:27.652Z,6.35
2024-01-25T18:09:55.479Z,7.63
2024-01-25T18:12:23.014Z,5.53
2024-01-25T18:14:50.615Z,5.32
2024-01-25T18:17:18.306Z,4.57
2024-01-25T18:19:45.635Z,5.82
2024-01-25T18:22:13.086Z,4.63
2024-01-25T18:24:40.494Z,6.88
2024-01-25T18:27:07.736Z,6.38
2024-01-25T18:29:35.108Z,7.18
2024-01-25T18:32:02.521Z,9.98
2024-01-25T18:34:29.955Z,9.35
2024-01-25T18:36:57.259Z,10.38
2024-01-25T18:39:24.935Z,8.93
2024-01-25T18:41:54.207Z,12.68
2024-01-25T18:44:23.603Z,9.25
2024-01-25T18:46:51.052Z,7.70
2024-01-25T18:49:18.481Z,8.68
2024-01-25T18:51:46.023Z,8.07
2024-01-25T18:54:13.759Z,9.93
2024-01-25T18:56:41.568Z,9.38
2024-01-25T18:59:10.055Z,9.05
2024-01-25T19:01:37.707Z,11.00
2024-01-25T19:04:05.607Z,12.77
2024-01-25T19:06:36.473Z,14.07
2024-01-25T19:09:06.435Z,13.25
2024-01-25T19:11:33.907Z,16.83
2024-01-25T19:14:02.287Z,16.25
2024-01-25T19:16:29.527Z,15.18
2024-01-25T19:18:56.796Z,16.02
2024-01-25T19:21:24.182Z,13.30
2024-01-25T19:23:51.612Z,12.48
2024-01-25T19:26:19.160Z,11.52
2024-01-25T19:28:46.507Z,8.98
2024-01-25T19:31:15.279Z,10.48
2024-01-25T19:33:42.667Z,10.63
2024-01-25T19:36:10.203Z,11.60
2024-01-25T19:38:42.289Z,15.30
2024-01-25T19:41:12.356Z,8.93
2024-01-25T19:43:39.573Z,8.93
2024-01-25T19:46:07.260Z,9.02
2024-01-25T19:48:34.578Z,8.00
2024-01-25T19:51:01.770Z,10.75
2024-01-25T19:53:29.466Z,10.07
2024-01-25T19:55:56.951Z,8.02
2024-01-25T19:58:27.599Z,9.73
2024-01-25T20:00:55.693Z,10.77
2024-01-25T20:03:24.473Z,12.63
2024-01-25T20:05:52.074Z,14.55
2024-01-25T20:08:19.514Z,13.07
2024-01-25T20:10:46.648Z,18.05
2024-01-25T20:13:13.979Z,34.00
2024-01-25T20:15:41.909Z,14.52
2024-01-25T20:18:09.552Z,13.88
2024-01-25T20:20:43.296Z,9.80
2024-01-25T20:23:16.001Z,9.07
2024-01-25T20:25:43.357Z,10.80
2024-01-25T20:28:10.859Z,12.10
2024-01-25T20:30:40.290Z,13.63
2024-01-25T20:33:08.099Z,12.15
2024-01-25T20:35:35.591Z,11.20
2024-01-25T20:38:03.013Z,12.50
2024-01-25T20:40:32.258Z,10.05
2024-01-25T20:42:59.813Z,9.60
2024-01-25T20:45:27.328Z,8.45
2024-01-25T20:47:54.563Z,9.10
2024-01-25T20:50:29.793Z,9.20
2024-01-25T20:53:02.007Z,7.28
2024-01-25T20:55:29.278Z,6.97
2024-01-25T20:57:57.590Z,6.35
2024-01-25T21:00:25.028Z,6.65
2024-01-25T21:02:53.576Z,6.72
2024-01-25T21:05:21.164Z,9.50
2024-01-25T21:07:48.695Z,8.00
2024-01-25T21:10:18.100Z,8.45
2024-01-25T21:12:46.234Z,8.63
2024-01-25T21:15:14.344Z,8.52
2024-01-25T21:17:41.935Z,8.50
2024-01-25T21:20:11.752Z,7.60
2024-01-25T21:22:39.222Z,7.93
2024-01-25T21:25:09.528Z,7.25
2024-01-25T21:27:39.436Z,6.78
2024-01-25T21:30:07.412Z,9.20
2024-01-25T21:32:34.978Z,7.78
2024-01-25T21:35:02.660Z,9.00
2024-01-25T21:37:30.400Z,7.22
2024-01-25T21:39:58.087Z,6.93
2024-01-25T21:42:26.216Z,9.00
2024-01-25T21:44:53.553Z,8.75
2024-01-25T21:47:20.769Z,7.00
2024-01-25T21:49:48.411Z,7.13
2024-01-25T21:52:17.833Z,7.03
2024-01-25T21:54:46.729Z,8.50
2024-01-25T21:57:14.002Z,7.70
2024-01-25T21:59:41.480Z,7.30
2024-01-25T22:02:08.748Z,8.32
2024-01-25T22:04:37.400Z,6.63
2024-01-25T22:07:05.042Z,7.82
2024-01-25T22:09:32.766Z,8.13
2024-01-25T22:12:01.091Z,6.35
2024-01-25T22:14:28.318Z,7.90
2024-01-25T22:16:55.691Z,6.28
2024-01-25T22:19:23.735Z,5.82
2024-01-25T22:21:51.602Z,5.30
2024-01-25T22:24:19.108Z,5.38
2024-01-25T22:26:46.331Z,7.05
2024-01-25T22:29:13.734Z,6.45
2024-01-25T22:31:42.047Z,4.97
2024-01-25T22:34:09.340Z,5.85
2024-01-25T22:36:36.691Z,4.35
2024-01-25T22:39:04.946Z,4.22
2024-01-25T22:41:32.191Z,3.53
2024-01-25T22:43:59.320Z,2.90
2024-01-25T22:46:28.958Z,3.72
2024-01-25T22:48:57.168Z,3.92
2024-01-25T22:51:24.503Z,5.40
2024-01-25T22:53:51.863Z,3.17
2024-01-25T22:56:20.308Z,4.28
2024-01-25T22:58:47.841Z,4.60
2024-01-25T23:01:16.895Z,3.95
2024-01-25T23:03:45.504Z,4.03
2024-01-25T23:06:12.806Z,4.40
2024-01-25T23:08:40.400Z,4.47
2024-01-25T23:11:08.276Z,4.15
2024-01-25T23:13:37.086Z,2.88
2024-01-25T23:16:04.782Z,3.65
2024-01-25T23:18:32.222Z,7.38
2024-01-25T23:20:59.250Z,5.32
2024-01-25T23:23:26.559Z,3.70
2024-01-25T23:25:57.601Z,3.95
2024-01-25T23:28:28.600Z,5.45
2024-01-25T23:30:57.097Z,5.43
2024-01-25T23:33:25.005Z,8.15
2024-01-25T23:35:53.336Z,9.25
2024-01-25T23:38:21.183Z,8.40
2024-01-25T23:40:48.411Z,10.20
2024-01-25T23:43:15.572Z,9.70
2024-01-25T23:45:42.769Z,8.40
2024-01-25T23:48:10.539Z,10.68
2024-01-25T23:50:38.027Z,9.93
2024-01-25T23:53:07.667Z,9.50
2024-01-25T23:55:34.871Z,6.45
2024-01-25T23:58:02.193Z,5.35
